Portada
METAR-TAF:

METAR-TAF

Aeroports :

Tenerife Sud, Espanya

latitud: 28-03N, longitud: 016-34W, altitud: 64 m

Observació

L'informe es va fer fa 33 minuts, a les 06:00 UTC
Vent 12 kt del Nord-Est
Temperatura 22°C
Humitat 78%
Pressió 1020 hPa
Visibilitat 10 km o més
Escasses núvols a una alçada de 2500 ft

METAR: GCTS 280600Z 05012KT 9999 FEW025 22/18 Q1020 NOSIG

Hora: 07:33 (06:33 UTC)

Pronòstic

L'informe es va fer fa 4 hores i 33 minuts, a les 02:00 UTC
Pronòstic vàlid del 28 a les 03 UTC al 29 a les 03 UTC
Vent 25 kt del Est/Nord-Est
Visibilitat 10 km o més
Escasses núvols a una alçada de 3000 ft
Probabilitat 40% :
Temporalment
l' 28 a les 03 UTC al 28 a les 12 UTC
Vent 23 kt del Est/Nord-Est amb ràfegues de 33 kt
Probabilitat 30%
l' 28 a les 03 UTC al 28 a les 09 UTC
Vent 15 kt del Nord-Est

TAF: GCTS 280200Z 2803/2903 06025KT 9999 FEW030 TX26/2814Z TN21/2806Z PROB40 TEMPO 2803/2812 06023G33KT PROB30 2803/2809 05015KT

Observacions i pronòstics meteorològics de més de 4000 aeroports (METAR i TAF).

Les estacions disponibles són els punts grocs i vermells al mapa.

Posi el ratolí al punt desitjat per veure el nom de l'estació.

Feu clic per veure les observacions i els pronòstics meteorològics.

Per canviar el mapa: feu clic els botons verds amb una creu de color negre per apropar; al botó verd amb un guió per allunyar la imatge; o en les fletxes verdes per a mapes adjacents.


METAR-TAF: